createdAt,value
2023-05-02T00:02:02.812Z,2.60
2023-05-02T00:07:12.621Z,2.80
2023-05-02T00:12:23.522Z,2.60
2023-05-02T00:17:33.609Z,3.00
2023-05-02T00:22:43.989Z,2.30
2023-05-02T00:27:53.760Z,2.80
2023-05-02T00:33:03.529Z,2.40
2023-05-02T00:38:13.349Z,3.30
2023-05-02T00:43:23.209Z,3.30
2023-05-02T00:48:33.069Z,3.30
2023-05-02T00:53:43.400Z,2.70
2023-05-02T00:58:53.979Z,2.50
2023-05-02T01:04:21.910Z,2.90
2023-05-02T01:09:45.234Z,3.30
2023-05-02T01:15:00.310Z,2.00
2023-05-02T01:20:16.109Z,3.30
2023-05-02T01:25:38.562Z,2.80
2023-05-02T01:30:51.977Z,2.70
2023-05-02T01:36:05.089Z,2.60
2023-05-02T01:41:16.612Z,2.50
2023-05-02T01:46:29.400Z,3.00
2023-05-02T01:51:46.362Z,2.70
2023-05-02T01:56:58.180Z,3.40
2023-05-02T02:02:10.517Z,2.60
2023-05-02T02:07:20.452Z,2.20
2023-05-02T02:12:38.550Z,3.20
2023-05-02T02:17:56.878Z,3.20
2023-05-02T02:23:10.217Z,3.20
2023-05-02T02:28:20.217Z,3.10
2023-05-02T02:33:33.942Z,2.90
2023-05-02T02:38:51.252Z,2.40
2023-05-02T02:44:19.672Z,2.90
2023-05-02T02:49:41.214Z,2.60
2023-05-02T02:54:59.679Z,2.80
2023-05-02T03:00:18.119Z,2.40
2023-05-02T03:05:29.126Z,2.60
2023-05-02T03:10:39.128Z,2.30
2023-05-02T03:16:31.457Z,2.80
2023-05-02T03:21:42.180Z,3.60
2023-05-02T03:26:52.119Z,3.90
2023-05-02T03:32:02.047Z,3.80
2023-05-02T03:37:12.164Z,5.50
2023-05-02T03:42:22.920Z,5.10
2023-05-02T03:47:32.698Z,4.50
2023-05-02T03:52:42.392Z,3.40
2023-05-02T03:57:52.342Z,4.10
2023-05-02T04:03:03.953Z,3.30
2023-05-02T04:08:13.885Z,3.10
2023-05-02T04:13:23.595Z,3.20
2023-05-02T04:18:33.523Z,3.50
2023-05-02T04:23:43.294Z,3.80
2023-05-02T04:28:52.928Z,3.20
2023-05-02T04:34:04.593Z,4.10
2023-05-02T04:39:14.331Z,4.10
2023-05-02T04:44:24.157Z,3.20
2023-05-02T04:49:33.920Z,3.70
2023-05-02T04:54:43.521Z,3.80
2023-05-02T04:59:53.226Z,4.50
2023-05-02T05:05:04.773Z,4.30
2023-05-02T05:10:15.531Z,5.70
2023-05-02T05:15:26.334Z,4.10
2023-05-02T05:20:36.207Z,4.20
2023-05-02T05:25:46.506Z,3.30
2023-05-02T05:30:56.389Z,7.40
2023-05-02T05:36:12.338Z,5.40
2023-05-02T05:41:22.338Z,6.10
2023-05-02T05:46:32.135Z,6.30
2023-05-02T05:51:42.583Z,9.90
2023-05-02T05:56:53.021Z,12.10
2023-05-02T06:02:02.786Z,14.90
2023-05-02T06:07:12.789Z,8.70
2023-05-02T06:12:23.090Z,8.20
2023-05-02T06:17:32.922Z,8.80
2023-05-02T06:22:42.904Z,7.50
2023-05-02T06:27:59.113Z,7.50
2023-05-02T06:33:12.706Z,5.90
2023-05-02T06:38:22.638Z,7.80
2023-05-02T06:43:33.253Z,8.90
2023-05-02T06:48:43.080Z,7.80
2023-05-02T06:53:53.056Z,6.00
2023-05-02T06:59:03.280Z,4.80
2023-05-02T07:04:13.176Z,4.80
2023-05-02T07:09:22.933Z,5.00
2023-05-02T07:14:32.711Z,4.80
2023-05-02T07:19:58.757Z,4.50
2023-05-02T07:25:10.354Z,4.50
2023-05-02T07:30:20.061Z,6.90
2023-05-02T07:35:29.772Z,5.20
2023-05-02T07:40:39.508Z,4.80
2023-05-02T07:45:49.585Z,5.90
2023-05-02T07:51:07.276Z,5.30
2023-05-02T07:56:17.066Z,5.40
2023-05-02T08:01:26.947Z,4.80
2023-05-02T08:06:37.152Z,5.40
2023-05-02T08:11:46.892Z,6.40
2023-05-02T08:16:56.578Z,7.10
2023-05-02T08:22:06.480Z,4.20
2023-05-02T08:27:16.103Z,5.80
2023-05-02T08:32:25.881Z,5.00
2023-05-02T08:37:36.702Z,4.10
2023-05-02T08:42:48.839Z,4.40
2023-05-02T08:48:00.383Z,6.00
2023-05-02T08:53:12.415Z,6.10
2023-05-02T08:58:22.126Z,8.00
2023-05-02T09:03:36.384Z,5.40
2023-05-02T09:08:49.108Z,7.00
2023-05-02T09:14:04.250Z,7.40
2023-05-02T09:19:25.418Z,6.30
2023-05-02T09:24:35.152Z,5.70
2023-05-02T09:29:46.314Z,8.00
2023-05-02T09:40:30.430Z,8.20
2023-05-02T09:45:40.516Z,6.80
2023-05-02T09:50:50.174Z,6.00
2023-05-02T09:56:11.312Z,5.20
2023-05-02T10:01:22.794Z,4.90
2023-05-02T10:06:34.291Z,6.10
2023-05-02T10:11:46.398Z,5.30
2023-05-02T10:17:06.711Z,6.40
2023-05-02T10:22:20.266Z,5.00
2023-05-02T10:27:30.905Z,5.30
2023-05-02T10:32:42.201Z,5.10
2023-05-02T10:37:53.934Z,5.60
2023-05-02T10:43:03.851Z,6.50
2023-05-02T10:48:22.571Z,6.00
2023-05-02T10:53:36.946Z,6.90
2023-05-02T10:58:49.571Z,6.40
2023-05-02T11:04:03.815Z,6.00
2023-05-02T11:09:40.138Z,5.70
2023-05-02T11:14:54.396Z,3.30
2023-05-02T11:20:29.801Z,3.70
2023-05-02T11:25:45.661Z,3.30
2023-05-02T11:30:56.127Z,3.10
2023-05-02T11:36:07.250Z,3.50
2023-05-02T11:41:17.951Z,3.00
2023-05-02T11:46:27.791Z,3.20
2023-05-02T11:51:38.110Z,3.20
2023-05-02T11:56:48.731Z,3.30
2023-05-02T12:01:58.624Z,2.70
2023-05-02T12:07:10.153Z,2.70
2023-05-02T12:12:25.410Z,2.70
2023-05-02T12:17:36.559Z,2.90
2023-05-02T12:22:47.909Z,2.80
2023-05-02T12:28:08.297Z,3.00
2023-05-02T12:33:18.649Z,3.20
2023-05-02T12:38:28.694Z,3.10
2023-05-02T12:43:55.071Z,3.60
2023-05-02T12:49:12.927Z,3.10
2023-05-02T12:54:27.126Z,3.20
2023-05-02T12:59:37.680Z,3.80
2023-05-02T13:04:47.616Z,3.40
2023-05-02T13:09:57.416Z,3.70
2023-05-02T13:15:09.032Z,3.50
2023-05-02T13:20:19.215Z,3.70
2023-05-02T13:25:29.038Z,3.00
2023-05-02T13:30:38.745Z,3.70
2023-05-02T13:35:48.640Z,2.50
2023-05-02T13:40:58.379Z,4.30
2023-05-02T13:46:08.355Z,3.40
2023-05-02T13:51:18.151Z,3.80
2023-05-02T13:56:28.122Z,4.20
2023-05-02T14:01:40.795Z,5.20
2023-05-02T14:06:50.930Z,5.00
2023-05-02T14:12:00.755Z,6.20
2023-05-02T14:17:10.477Z,4.90
2023-05-02T14:22:20.229Z,4.90
2023-05-02T14:27:29.996Z,5.20
2023-05-02T14:32:39.841Z,5.40
2023-05-02T14:37:49.727Z,5.30
2023-05-02T14:42:59.533Z,4.90
2023-05-02T14:48:11.156Z,4.40
2023-05-02T14:53:22.134Z,4.30
2023-05-02T14:58:31.921Z,3.10
2023-05-02T15:03:56.998Z,3.90
2023-05-02T15:09:12.361Z,3.30
2023-05-02T15:14:21.994Z,2.90
2023-05-02T15:19:31.702Z,3.20
2023-05-02T15:24:41.292Z,3.50
2023-05-02T15:29:50.971Z,3.00
2023-05-02T15:35:00.895Z,2.60
2023-05-02T15:40:14.667Z,2.30
2023-05-02T15:45:24.629Z,4.00
2023-05-02T15:50:34.585Z,3.40
2023-05-02T15:55:46.111Z,3.30
2023-05-02T16:00:56.303Z,2.50
2023-05-02T16:06:07.973Z,2.50
2023-05-02T16:11:17.784Z,2.10
2023-05-02T16:16:27.706Z,3.00
2023-05-02T16:21:37.766Z,2.50
2023-05-02T16:26:47.727Z,3.00
2023-05-02T16:31:57.572Z,3.30
2023-05-02T16:37:07.758Z,3.20
2023-05-02T16:42:17.597Z,3.00
2023-05-02T16:47:27.371Z,3.00
2023-05-02T16:52:38.274Z,2.70
2023-05-02T16:57:48.147Z,2.80
2023-05-02T17:02:58.578Z,4.40
2023-05-02T17:08:09.844Z,2.90
2023-05-02T17:13:22.032Z,3.10
2023-05-02T17:18:32.021Z,3.60
2023-05-02T17:23:42.408Z,2.90
2023-05-02T17:28:54.022Z,2.30
2023-05-02T17:34:04.012Z,2.30
2023-05-02T17:39:16.094Z,2.70
2023-05-02T17:44:25.984Z,2.10
2023-05-02T17:49:36.713Z,1.90
2023-05-02T17:54:46.780Z,1.70
2023-05-02T17:59:59.817Z,2.40
2023-05-02T18:05:11.059Z,3.20
2023-05-02T18:10:21.629Z,2.20
2023-05-02T18:15:31.532Z,2.70
2023-05-02T18:20:44.846Z,2.20
2023-05-02T18:25:54.719Z,3.30
2023-05-02T18:31:05.090Z,3.20
2023-05-02T18:36:15.139Z,2.80
2023-05-02T18:41:25.077Z,2.60
2023-05-02T18:46:34.771Z,2.40
2023-05-02T18:51:44.621Z,2.00
2023-05-02T18:56:54.270Z,1.70
2023-05-02T19:02:04.446Z,1.70
2023-05-02T19:07:14.780Z,1.50
2023-05-02T19:12:24.855Z,1.70
2023-05-02T19:17:35.441Z,1.30
2023-05-02T19:22:46.372Z,1.20
2023-05-02T19:27:56.228Z,1.50
2023-05-02T19:33:06.138Z,2.20
2023-05-02T19:38:16.010Z,1.60
2023-05-02T19:43:25.849Z,2.00
2023-05-02T19:48:35.865Z,2.00
2023-05-02T19:53:45.845Z,2.00
2023-05-02T19:58:56.999Z,2.10
2023-05-02T20:04:07.166Z,2.00
2023-05-02T20:09:17.399Z,1.40
2023-05-02T20:14:27.263Z,1.60
2023-05-02T20:19:37.069Z,1.60
2023-05-02T20:24:46.893Z,1.50
2023-05-02T20:29:57.130Z,1.50
2023-05-02T20:35:07.479Z,1.70
2023-05-02T20:40:19.886Z,2.10
2023-05-02T20:45:29.990Z,2.50
2023-05-02T20:50:40.065Z,2.10
2023-05-02T20:55:50.031Z,1.50
2023-05-02T21:00:59.845Z,2.60
2023-05-02T21:06:09.873Z,1.80
2023-05-02T21:11:20.669Z,1.80
2023-05-02T21:16:30.559Z,1.00
2023-05-02T21:21:40.576Z,1.00
2023-05-02T21:26:50.436Z,1.00
2023-05-02T21:32:00.190Z,1.40
2023-05-02T21:37:09.923Z,3.60
2023-05-02T21:42:19.839Z,2.40
2023-05-02T21:47:29.851Z,2.80
2023-05-02T21:52:39.752Z,2.30
2023-05-02T21:57:49.528Z,1.80
2023-05-02T22:03:49.159Z,1.80
2023-05-02T22:08:59.010Z,1.40
2023-05-02T22:14:08.795Z,1.40
2023-05-02T22:19:18.475Z,2.70
2023-05-02T22:24:28.410Z,2.90
2023-05-02T22:29:38.357Z,2.00
2023-05-02T22:34:48.147Z,1.80
2023-05-02T22:39:58.020Z,1.80
2023-05-02T22:45:09.611Z,1.80
2023-05-02T22:50:20.136Z,2.80
2023-05-02T22:55:30.160Z,2.30
2023-05-02T23:00:40.020Z,2.20
2023-05-02T23:05:50.285Z,2.70
2023-05-02T23:11:00.285Z,7.50
2023-05-02T23:16:10.992Z,25.30
2023-05-02T23:21:21.194Z,13.90
2023-05-02T23:26:31.141Z,10.80
2023-05-02T23:31:41.176Z,10.70
2023-05-02T23:36:52.983Z,3.90
2023-05-02T23:42:03.974Z,7.10
2023-05-02T23:47:13.824Z,6.40
2023-05-02T23:52:23.737Z,4.50
2023-05-02T23:57:34.252Z,8.00
